Highlands Peak, California Weather observations

Data are for observation ending at time listed.
 Day   Time    Ave.   Ave.  Ave.  Vector   Max.   Stn.    Total    Solar   Ave.  
  of    of     Air    Rel.  Wind   Wind    Wind   Baro.  Precip.   Rad.    Soil  
Year   Day     Temp.  Hum.  Speed  Dir.    Gust   Pres.                    Temp. 
2014   (PST)    F      %     mph   deg.    mph     mb.     in.     W/m2     F   
------------------------------------------------------------------------------
 211    0:00   77.8    26    1.5    19      2.3   931.5    0.00       0    89.6
 211    0:10   77.8    26    0.5   277      1.8   931.6    0.00       0    89.4
 211    0:20   77.9    27    2.3    43      3.4   931.5    0.00       0    89.2
 211    0:30   78.4    25    3.2    42      4.7   931.4    0.00       0    89.0
 211    0:40   79.2    18    3.4     3      4.8   931.4    0.00       0    88.8
 211    0:50   79.8    17    3.2   347      5.1   931.4    0.00       0    88.6
 211    1:00   79.5    20    3.6   342      5.0   931.3    0.00       0    88.4
 211    1:10   79.3    20    3.4   337      4.5   931.2    0.00       0    88.3
 211    1:20   79.6    22    3.3    30      4.3   931.2    0.00       0    88.1
 211    1:30   79.5    22    4.0   336      5.6   931.1    0.00       0    87.9
 211    1:40   78.5    22    4.2   331      5.2   931.0    0.00       0    87.7
 211    1:50   78.7    25    2.9    63      4.2   930.9    0.00       0    87.5
 211    2:00   79.3    23    2.5    11      3.6   930.8    0.00       0    87.2
 211    2:10   79.5    24    2.6    11      4.0   930.8    0.00       0    87.1
 211    2:20   79.1    25    3.0    22      5.1   930.8    0.00       0    86.9
 211    2:30   78.0    27    3.0    29      4.8   930.8    0.00       0    86.7
 211    2:40   78.3    28    3.3   358      4.8   930.8    0.00       0    86.5
 211    2:50   77.2    30    4.5    60      5.8   930.8    0.00       0    86.4
 211    3:00   75.3    31    3.4   331      4.2   930.8    0.00       0    86.3
 211    3:10   74.5    31    2.7     2      3.8   930.8    0.00       0    86.1
 211    3:20   75.2    31    4.8    68      5.8   930.9    0.00       0    85.9
 211    3:30   76.0    31    4.7    66      7.0   930.9    0.00       0    85.8
 211    3:40   75.8    31    4.5    79      6.6   930.9    0.00       0    85.6
 211    3:50   76.6    31    3.3    38      6.0   930.9    0.00       0    85.4
 211    4:00   76.6    31    5.9    63      7.1   930.9    0.00       0    85.4
 211    4:10   76.7    31    2.5   334      5.3   930.9    0.00       0    85.2
 211    4:20   76.1    31    1.7   348      2.9   930.9    0.00       0    85.0
 211    4:30   75.3    32    3.8    75      5.0   931.0    0.00       0    84.9
 211    4:40   75.0    32    3.2    62      4.2   931.0    0.00       0    84.7
 211    4:50   75.6    30    2.4    42      4.5   931.0    0.00       0    84.5
 211    5:00   75.8    31    1.0    34      2.4   931.0    0.00       0    84.4
 211    5:10   76.0    28    1.1   351      2.8   931.1    0.00       1    84.3
 211    5:20   76.9    29    1.1    72      3.6   931.1    0.00       4    84.1
 211    5:30   76.9    29    2.3    71      4.5   931.1    0.00      11    84.0
 211    5:40   76.5    30    4.5    87      5.1   931.1    0.00      20    83.8
 211    5:50   76.9    30    3.1    83      4.5   931.2    0.00      26    83.7
 211    6:00   77.4    30    4.0    84      5.2   931.3    0.00      28    83.5
 211    6:10   77.8    27    2.4   132      3.8   931.4    0.00      33    83.3
 211    6:20   79.2    26    1.3   108      3.6   931.4    0.00     167    83.2
 211    6:30   81.1    27    2.3    89      4.9   931.4    0.00     233    83.1
 211    6:40   80.7    26    1.0   260      2.2   931.5    0.00     267    83.0
 211    6:50   81.3    26    1.7   110      3.6   931.6    0.00     299    82.9
 211    7:00   81.6    28    1.3   162      2.8   931.7    0.00     340    82.9
 211    7:10   81.2    28    1.9    91      4.0   931.7    0.00     360    82.8
 211    7:20   82.2    28    1.3    49      3.1   931.7    0.00     378    82.8
 211    7:30   80.6    26    1.5   269      2.0   931.8    0.00     394    82.8
 211    7:40   80.5    23    1.4   258      2.4   931.8    0.00     502    82.8
 211    7:50   80.9    24    1.8   227      2.9   931.9    0.00     540    82.8
 211    8:00   81.0    24    2.2   257      3.5   931.9    0.00     568    82.9
 211    8:10   80.1    28    2.6   248      3.7   932.0    0.00     579    82.8
 211    8:20   80.5    24    1.6   254      2.7   932.0    0.00     632    82.9
 211    8:30   81.3    22    2.2   275      3.1   932.0    0.00     653    82.9
 211    8:40   81.2    22    2.5   281      3.3   932.0    0.00     697    82.9
 211    8:50   81.6    22    2.6   283      3.9   932.0    0.00     730    83.0
 211    9:00   82.3    21    2.9   276      4.0   932.0    0.00     766    83.2
 211    9:10   82.3    21    3.1   274      4.5   932.1    0.00     802    83.4
 211    9:20   82.6    19    2.8   271      5.3   932.0    0.00     834    83.6
 211    9:30   83.0    19    2.8   275      4.5   932.0    0.00     861    83.8
 211    9:40   83.4    20    3.3   275      4.9   932.0    0.00     885    84.0
 211    9:50   83.5    21    3.5   281      6.3   932.0    0.00     905    84.2
 211   10:00   83.5    21    4.2   277      6.3   932.0    0.00     925    84.5
 211   10:10   83.9    21    4.3   282      6.4   932.0    0.00     945    84.8
 211   10:20   83.4    21    3.4   278      5.8   932.0    0.00     963    85.1
 211   10:30   84.6    21    4.0   266      6.4   932.0    0.00     979    85.4
 211   10:40   84.5    22    4.4   271      7.4   932.1    0.00     989    85.6
 211   10:50   84.6    22    4.7   267      6.7   932.1    0.00     999    85.9
 211   11:00   84.3    22    4.7   266      7.5   932.1    0.00    1007    86.2
 211   11:10   84.4    22    4.4   274      6.8   932.1    0.00    1013    86.5
 211   11:20   84.4    21    4.0   273      6.2   932.1    0.00    1017    86.8
 211   11:30   84.6    20    4.5   277      6.9   932.1    0.00    1020    87.1
 211   11:40   84.2    19    5.4   271      7.3   932.1    0.00    1025    87.4
 211   11:50   84.1    19    5.3   270      7.3   932.1    0.00    1029    87.6
 211   12:00   85.2    19    5.0   276      7.0   932.1    0.00    1032    87.9
 211   12:10   84.8    19    5.3   278      8.5   932.1    0.00    1031    88.2
 211   12:20   84.5    19    5.1   273      7.7   932.2    0.00    1027    88.5
 211   12:30   84.7    17    5.3   273      8.0   932.1    0.00    1025    88.7
 211   12:40   84.9    17    5.6   278      8.5   932.1    0.00    1020    88.9
 211   12:50   83.9    17    5.5   270      8.3   932.1    0.00    1014    89.1
 211   13:00   84.9    16    5.3   275      8.2   932.0    0.00    1005    89.3
 211   13:10   85.0    14    6.1   273      9.1   932.0    0.00     995    89.5
 211   13:20   84.3    13    5.7   274      8.5   932.0    0.00     985    89.8
 211   13:30   85.2    13    5.4   276      9.9   932.0    0.00     973    90.1
 211   13:40   85.2    14    5.1   277      8.5   931.9    0.00     959    90.5
 211   13:50   85.8    14    5.4   280      8.5   931.9    0.00     919    90.8
 211   14:00   85.7    13    6.4   278      9.9   931.8    0.00     929    91.3
 211   14:10   85.3    13    6.1   278      9.2   931.8    0.00     914    91.7
 211   14:20   85.8    14    5.8   277     10.1   931.8    0.00     873    92.1
 211   14:30   84.5    15    5.4   282      9.0   931.8    0.00     743    92.5
 211   14:40   85.7    15    5.3   286      8.3   931.7    0.00     840    92.9
 211   14:50   85.6    15    5.5   274      9.1   931.6    0.00     902    93.3
 211   15:00   85.7    15    5.9   278      9.0   931.6    0.00     839    93.8
 211   15:10   86.1    16    5.7   271      8.2   931.5    0.00     805    94.2
 211   15:20   86.0    14    5.4   268      7.9   931.5    0.00     760    94.5
 211   15:30   85.8    15    5.3   272      9.0   931.4    0.00     731    94.9
 211   15:40   86.2    14    6.0   282      9.0   931.4    0.00     738    95.2
 211   15:50   86.1    15    6.3   283     10.3   931.3    0.00     538    95.5
 211   16:00   84.8    16    4.7   281      7.5   931.3    0.00     517    95.7
 211   16:10   85.2    15    6.0   282      8.1   931.3    0.00     636    96.0
 211   16:20   85.5    15    6.4   290      9.0   931.3    0.00     599    96.2
 211   16:30   85.1    15    5.9   282      9.5   931.3    0.00     573    96.5
 211   16:40   86.2    14    5.6   281      9.1   931.1    0.00     571    96.8
 211   16:50   86.4    15    4.9   283      8.7   931.0    0.00     502    96.9
 211   17:00   87.0    16    5.5   274      8.6   930.9    0.00     440    97.1
 211   17:10   85.4    16    6.1   281      8.1   930.8    0.00     376    97.2
 211   17:20   85.3    17    4.8   293      7.7   930.7    0.00     385    97.3
 211   17:30   86.1    16    4.9   287      7.4   930.7    0.00     336    97.4
 211   17:40   85.8    16    5.4   283      8.3   930.7    0.00     294    97.5
 211   17:50   85.4    17    5.5   287      8.1   930.5    0.00     250    97.6
 211   18:00   85.6    17    5.2   295      9.6   930.5    0.00     212    97.6
 211   18:10   84.8    18    5.3   295      8.8   930.5    0.00     176    97.6
 211   18:20   84.8    18    4.9   301      7.4   930.6    0.00     144    97.6
 211   18:30   84.6    18    4.2   296      6.5   930.6    0.00     120    97.6
 211   18:40   84.0    19    4.2   288      6.9   930.6    0.00      96    97.5
 211   18:50   83.0    19    4.0   293      7.1   930.6    0.00      72    97.5
 211   19:00   82.2    20    4.7   315      6.3   930.6    0.00      48    97.4
 211   19:10   82.1    20    4.7   318      6.1   930.7    0.00      25    97.2
 211   19:20   81.2    21    3.7    45      4.9   930.7    0.00       8    97.1
 211   19:30   81.0    22    3.4    64      3.9   930.6    0.00       2    96.9
 211   19:40   81.8    20    2.7    42      3.6   930.7    0.00       0    96.7
 211   19:50   81.1    21    2.5   324      4.2   930.8    0.00       0    96.6
 211   20:00   80.1    23    2.3    17      4.6   930.8    0.00       0    96.4
 211   20:10   79.4    24    2.2    16      3.9   930.9    0.00       0    96.2
 211   20:20   79.1    23    3.5   330      5.0   930.9    0.00       0    96.0
 211   20:30   79.0    23    3.1   326      4.2   931.0    0.00       0    95.7
 211   20:40   79.1    22    4.7   324      6.5   931.0    0.00       0    95.5
 211   20:50   78.8    22    2.4   339      4.2   931.1    0.00       0    95.3
 211   21:00   79.6    21    1.4   329      2.6   931.0    0.00       0    95.0
 211   21:10   79.8    22    2.9    14      4.5   931.0    0.00       0    94.7
 211   21:20   80.3    22    3.4    25      4.6   931.0    0.00       0    94.5
 211   21:30   79.7    23    4.3    84      5.8   930.9    0.00       0    94.2
 211   21:40   80.0    22    3.9    64      5.3   930.9    0.00       0    93.9
 211   21:50   80.1    22    3.8    64      5.0   930.9    0.00       0    93.6
 211   22:00   81.0    21    1.4     0      4.2   930.9    0.00       0    93.4
 211   22:10   81.6    21    1.2   104      2.6   930.9    0.00       0    93.0
 211   22:20   82.0    20    0.6   100      2.5   930.9    0.00       0    92.6
 211   22:30   81.8    21    0.3   130      1.2   930.9    0.00       0    92.3
 211   22:40   81.0    21    1.7   153      3.3   930.9    0.00       0    91.9

Return to Highlands Peak graphs page.


Western Regional Climate Center,wrcc@dri.edu